sensor_id;sensor_type;location;lat;lon;timestamp;P1;durP1;ratioP1;P2;durP2;ratioP2
60243;SDS011;46106;51.468;5.814;2023-04-10T00:01:01;22.13;;;10.50;;
60243;SDS011;46106;51.468;5.814;2023-04-10T00:03:27;21.45;;;10.60;;
60243;SDS011;46106;51.468;5.814;2023-04-10T00:05:52;23.35;;;11.57;;
60243;SDS011;46106;51.468;5.814;2023-04-10T00:08:22;22.55;;;12.10;;
60243;SDS011;46106;51.468;5.814;2023-04-10T00:10:47;24.55;;;11.55;;
60243;SDS011;46106;51.468;5.814;2023-04-10T00:13:13;23.25;;;10.70;;
60243;SDS011;46106;51.468;5.814;2023-04-10T00:15:40;18.30;;;10.45;;
60243;SDS011;46106;51.468;5.814;2023-04-10T00:18:06;26.58;;;11.60;;
60243;SDS011;46106;51.468;5.814;2023-04-10T00:20:31;20.30;;;10.43;;
60243;SDS011;46106;51.468;5.814;2023-04-10T00:22:57;22.52;;;10.70;;
60243;SDS011;46106;51.468;5.814;2023-04-10T00:25:23;26.23;;;11.95;;
60243;SDS011;46106;51.468;5.814;2023-04-10T00:27:48;21.42;;;11.02;;
60243;SDS011;46106;51.468;5.814;2023-04-10T00:30:14;23.05;;;10.70;;
60243;SDS011;46106;51.468;5.814;2023-04-10T00:32:40;25.65;;;11.02;;
60243;SDS011;46106;51.468;5.814;2023-04-10T00:35:06;19.30;;;10.80;;
60243;SDS011;46106;51.468;5.814;2023-04-10T00:37:32;23.73;;;11.65;;
60243;SDS011;46106;51.468;5.814;2023-04-10T00:39:58;20.98;;;11.25;;
60243;SDS011;46106;51.468;5.814;2023-04-10T00:42:24;22.95;;;11.25;;
60243;SDS011;46106;51.468;5.814;2023-04-10T00:44:49;20.90;;;11.20;;
60243;SDS011;46106;51.468;5.814;2023-04-10T00:47:15;21.60;;;11.32;;
60243;SDS011;46106;51.468;5.814;2023-04-10T00:49:41;22.38;;;11.75;;
60243;SDS011;46106;51.468;5.814;2023-04-10T00:52:07;23.25;;;11.48;;
60243;SDS011;46106;51.468;5.814;2023-04-10T00:54:33;22.90;;;11.40;;
60243;SDS011;46106;51.468;5.814;2023-04-10T00:57:01;25.75;;;12.23;;
60243;SDS011;46106;51.468;5.814;2023-04-10T00:59:27;28.58;;;12.27;;
60243;SDS011;46106;51.468;5.814;2023-04-10T01:01:53;23.27;;;11.07;;
60243;SDS011;46106;51.468;5.814;2023-04-10T01:04:19;21.52;;;10.82;;
60243;SDS011;46106;51.468;5.814;2023-04-10T01:06:58;21.42;;;11.45;;
60243;SDS011;46106;51.468;5.814;2023-04-10T01:09:43;24.67;;;11.38;;
60243;SDS011;46106;51.468;5.814;2023-04-10T01:12:19;19.52;;;10.13;;
60243;SDS011;46106;51.468;5.814;2023-04-10T01:17:30;27.40;;;11.57;;
60243;SDS011;46106;51.468;5.814;2023-04-10T01:20:06;24.73;;;11.95;;
60243;SDS011;46106;51.468;5.814;2023-04-10T01:30:24;22.13;;;10.75;;
60243;SDS011;46106;51.468;5.814;2023-04-10T01:32:51;24.63;;;11.23;;
60243;SDS011;46106;51.468;5.814;2023-04-10T01:35:19;20.35;;;10.73;;
60243;SDS011;46106;51.468;5.814;2023-04-10T01:37:46;24.80;;;11.63;;
60243;SDS011;46106;51.468;5.814;2023-04-10T01:40:15;24.30;;;12.27;;
60243;SDS011;46106;51.468;5.814;2023-04-10T01:42:43;27.25;;;11.80;;
60243;SDS011;46106;51.468;5.814;2023-04-10T01:45:14;20.83;;;10.13;;
60243;SDS011;46106;51.468;5.814;2023-04-10T01:47:42;24.58;;;11.75;;
60243;SDS011;46106;51.468;5.814;2023-04-10T01:50:08;21.50;;;11.25;;
60243;SDS011;46106;51.468;5.814;2023-04-10T01:52:36;29.63;;;11.88;;
60243;SDS011;46106;51.468;5.814;2023-04-10T01:55:02;24.05;;;12.35;;
60243;SDS011;46106;51.468;5.814;2023-04-10T01:57:29;22.92;;;12.02;;
60243;SDS011;46106;51.468;5.814;2023-04-10T01:59:56;24.15;;;12.35;;
60243;SDS011;46106;51.468;5.814;2023-04-10T02:02:22;21.55;;;11.52;;
60243;SDS011;46106;51.468;5.814;2023-04-10T02:04:47;26.98;;;11.30;;
60243;SDS011;46106;51.468;5.814;2023-04-10T02:10:53;22.60;;;11.13;;
60243;SDS011;46106;51.468;5.814;2023-04-10T02:13:26;28.92;;;12.30;;
60243;SDS011;46106;51.468;5.814;2023-04-10T02:15:54;22.88;;;11.10;;
60243;SDS011;46106;51.468;5.814;2023-04-10T02:18:22;26.92;;;12.60;;
60243;SDS011;46106;51.468;5.814;2023-04-10T02:20:49;31.13;;;14.13;;
60243;SDS011;46106;51.468;5.814;2023-04-10T02:23:15;36.05;;;14.70;;
60243;SDS011;46106;51.468;5.814;2023-04-10T02:25:42;31.15;;;14.65;;
60243;SDS011;46106;51.468;5.814;2023-04-10T02:28:07;32.80;;;15.25;;
60243;SDS011;46106;51.468;5.814;2023-04-10T02:30:33;35.70;;;15.25;;
60243;SDS011;46106;51.468;5.814;2023-04-10T02:32:59;48.38;;;16.52;;
60243;SDS011;46106;51.468;5.814;2023-04-10T02:35:24;29.30;;;13.75;;
60243;SDS011;46106;51.468;5.814;2023-04-10T02:37:50;40.95;;;16.33;;
60243;SDS011;46106;51.468;5.814;2023-04-10T02:40:16;32.70;;;14.20;;
60243;SDS011;46106;51.468;5.814;2023-04-10T02:42:42;33.78;;;13.65;;
60243;SDS011;46106;51.468;5.814;2023-04-10T02:45:08;39.97;;;17.02;;
60243;SDS011;46106;51.468;5.814;2023-04-10T02:47:34;28.88;;;13.60;;
60243;SDS011;46106;51.468;5.814;2023-04-10T02:49:59;26.60;;;12.60;;
60243;SDS011;46106;51.468;5.814;2023-04-10T02:52:25;25.20;;;12.07;;
60243;SDS011;46106;51.468;5.814;2023-04-10T02:54:51;25.20;;;11.48;;
60243;SDS011;46106;51.468;5.814;2023-04-10T02:57:16;24.08;;;12.15;;
60243;SDS011;46106;51.468;5.814;2023-04-10T02:59:42;23.45;;;11.27;;
60243;SDS011;46106;51.468;5.814;2023-04-10T03:02:08;21.70;;;11.45;;
60243;SDS011;46106;51.468;5.814;2023-04-10T03:04:34;22.35;;;11.13;;
60243;SDS011;46106;51.468;5.814;2023-04-10T03:07:00;19.50;;;10.45;;
60243;SDS011;46106;51.468;5.814;2023-04-10T03:09:25;28.80;;;10.85;;
60243;SDS011;46106;51.468;5.814;2023-04-10T03:11:51;22.25;;;10.60;;
60243;SDS011;46106;51.468;5.814;2023-04-10T03:14:16;18.30;;;9.65;;
60243;SDS011;46106;51.468;5.814;2023-04-10T03:16:42;21.20;;;10.95;;
60243;SDS011;46106;51.468;5.814;2023-04-10T03:19:08;19.48;;;10.20;;
60243;SDS011;46106;51.468;5.814;2023-04-10T03:21:33;20.52;;;10.02;;
60243;SDS011;46106;51.468;5.814;2023-04-10T03:23:59;21.70;;;9.80;;
60243;SDS011;46106;51.468;5.814;2023-04-10T03:26:25;22.30;;;10.30;;
60243;SDS011;46106;51.468;5.814;2023-04-10T03:28:50;18.30;;;9.93;;
60243;SDS011;46106;51.468;5.814;2023-04-10T03:31:16;18.58;;;9.45;;
60243;SDS011;46106;51.468;5.814;2023-04-10T03:33:41;21.63;;;10.05;;
60243;SDS011;46106;51.468;5.814;2023-04-10T03:36:07;22.75;;;10.13;;
60243;SDS011;46106;51.468;5.814;2023-04-10T03:38:33;21.13;;;10.00;;
60243;SDS011;46106;51.468;5.814;2023-04-10T03:40:58;19.63;;;9.70;;
60243;SDS011;46106;51.468;5.814;2023-04-10T03:43:24;25.63;;;10.85;;
60243;SDS011;46106;51.468;5.814;2023-04-10T03:45:49;17.38;;;9.68;;
60243;SDS011;46106;51.468;5.814;2023-04-10T03:48:15;19.27;;;10.23;;
60243;SDS011;46106;51.468;5.814;2023-04-10T03:50:42;22.08;;;11.15;;
60243;SDS011;46106;51.468;5.814;2023-04-10T03:53:08;20.60;;;10.38;;
60243;SDS011;46106;51.468;5.814;2023-04-10T03:55:33;20.60;;;10.13;;
60243;SDS011;46106;51.468;5.814;2023-04-10T03:57:58;23.52;;;10.40;;
60243;SDS011;46106;51.468;5.814;2023-04-10T04:00:25;21.65;;;10.23;;
60243;SDS011;46106;51.468;5.814;2023-04-10T04:02:51;19.05;;;10.18;;
60243;SDS011;46106;51.468;5.814;2023-04-10T04:05:18;21.23;;;10.45;;
60243;SDS011;46106;51.468;5.814;2023-04-10T04:07:43;24.40;;;10.65;;
60243;SDS011;46106;51.468;5.814;2023-04-10T04:10:09;22.27;;;9.90;;
60243;SDS011;46106;51.468;5.814;2023-04-10T04:12:35;22.48;;;10.68;;
60243;SDS011;46106;51.468;5.814;2023-04-10T04:15:00;21.52;;;10.20;;
60243;SDS011;46106;51.468;5.814;2023-04-10T04:17:26;21.40;;;10.80;;
60243;SDS011;46106;51.468;5.814;2023-04-10T04:19:52;19.15;;;10.90;;
60243;SDS011;46106;51.468;5.814;2023-04-10T04:22:19;19.65;;;9.63;;
60243;SDS011;46106;51.468;5.814;2023-04-10T04:24:44;23.20;;;10.68;;
60243;SDS011;46106;51.468;5.814;2023-04-10T04:27:10;23.17;;;11.02;;
60243;SDS011;46106;51.468;5.814;2023-04-10T04:29:35;20.25;;;10.32;;
60243;SDS011;46106;51.468;5.814;2023-04-10T04:32:01;21.33;;;10.65;;
60243;SDS011;46106;51.468;5.814;2023-04-10T04:34:26;20.52;;;10.25;;
60243;SDS011;46106;51.468;5.814;2023-04-10T04:36:52;21.70;;;10.40;;
60243;SDS011;46106;51.468;5.814;2023-04-10T04:39:17;20.67;;;10.82;;
60243;SDS011;46106;51.468;5.814;2023-04-10T04:41:42;23.48;;;10.75;;
60243;SDS011;46106;51.468;5.814;2023-04-10T04:44:08;19.30;;;10.55;;
60243;SDS011;46106;51.468;5.814;2023-04-10T04:46:35;25.83;;;10.40;;
60243;SDS011;46106;51.468;5.814;2023-04-10T04:49:00;22.98;;;10.45;;
60243;SDS011;46106;51.468;5.814;2023-04-10T04:51:26;22.50;;;10.93;;
60243;SDS011;46106;51.468;5.814;2023-04-10T04:53:51;23.25;;;11.05;;
60243;SDS011;46106;51.468;5.814;2023-04-10T04:56:17;21.80;;;11.35;;
60243;SDS011;46106;51.468;5.814;2023-04-10T04:58:42;23.20;;;11.93;;
60243;SDS011;46106;51.468;5.814;2023-04-10T05:01:08;28.02;;;12.45;;
60243;SDS011;46106;51.468;5.814;2023-04-10T05:03:34;23.45;;;11.80;;
60243;SDS011;46106;51.468;5.814;2023-04-10T05:06:00;21.73;;;10.88;;
60243;SDS011;46106;51.468;5.814;2023-04-10T05:08:25;22.02;;;10.90;;
60243;SDS011;46106;51.468;5.814;2023-04-10T05:10:51;23.13;;;10.90;;
60243;SDS011;46106;51.468;5.814;2023-04-10T05:13:16;27.98;;;11.60;;
60243;SDS011;46106;51.468;5.814;2023-04-10T05:15:42;28.27;;;11.38;;
60243;SDS011;46106;51.468;5.814;2023-04-10T05:18:09;25.65;;;11.43;;
60243;SDS011;46106;51.468;5.814;2023-04-10T05:20:35;23.10;;;10.30;;
60243;SDS011;46106;51.468;5.814;2023-04-10T05:23:01;24.70;;;11.10;;
60243;SDS011;46106;51.468;5.814;2023-04-10T05:25:26;26.45;;;11.48;;
60243;SDS011;46106;51.468;5.814;2023-04-10T05:27:52;23.23;;;10.85;;
60243;SDS011;46106;51.468;5.814;2023-04-10T05:30:17;24.17;;;10.95;;
60243;SDS011;46106;51.468;5.814;2023-04-10T05:32:43;25.85;;;11.40;;
60243;SDS011;46106;51.468;5.814;2023-04-10T05:35:10;28.52;;;12.23;;
60243;SDS011;46106;51.468;5.814;2023-04-10T05:37:36;23.48;;;10.90;;
60243;SDS011;46106;51.468;5.814;2023-04-10T05:40:02;22.88;;;11.45;;
60243;SDS011;46106;51.468;5.814;2023-04-10T05:42:27;28.38;;;11.40;;
60243;SDS011;46106;51.468;5.814;2023-04-10T05:44:53;24.33;;;11.77;;
60243;SDS011;46106;51.468;5.814;2023-04-10T05:47:18;24.73;;;11.70;;
60243;SDS011;46106;51.468;5.814;2023-04-10T05:49:44;23.05;;;10.90;;
60243;SDS011;46106;51.468;5.814;2023-04-10T05:52:09;24.92;;;10.98;;
60243;SDS011;46106;51.468;5.814;2023-04-10T05:54:35;25.92;;;10.50;;
60243;SDS011;46106;51.468;5.814;2023-04-10T05:57:00;22.02;;;10.05;;
60243;SDS011;46106;51.468;5.814;2023-04-10T05:59:26;27.63;;;11.07;;
60243;SDS011;46106;51.468;5.814;2023-04-10T06:01:52;21.30;;;10.63;;
60243;SDS011;46106;51.468;5.814;2023-04-10T06:04:17;23.30;;;10.25;;
60243;SDS011;46106;51.468;5.814;2023-04-10T06:06:43;21.33;;;10.60;;
60243;SDS011;46106;51.468;5.814;2023-04-10T06:09:08;21.10;;;10.15;;
60243;SDS011;46106;51.468;5.814;2023-04-10T06:11:34;21.40;;;10.18;;
60243;SDS011;46106;51.468;5.814;2023-04-10T06:13:59;26.35;;;11.60;;
60243;SDS011;46106;51.468;5.814;2023-04-10T06:16:27;23.17;;;9.88;;
60243;SDS011;46106;51.468;5.814;2023-04-10T06:18:53;22.42;;;10.70;;
60243;SDS011;46106;51.468;5.814;2023-04-10T06:21:18;21.77;;;10.48;;
60243;SDS011;46106;51.468;5.814;2023-04-10T06:23:44;20.50;;;10.68;;
60243;SDS011;46106;51.468;5.814;2023-04-10T06:26:10;20.17;;;10.55;;
60243;SDS011;46106;51.468;5.814;2023-04-10T06:28:36;21.65;;;10.52;;
60243;SDS011;46106;51.468;5.814;2023-04-10T06:31:02;18.90;;;9.88;;
60243;SDS011;46106;51.468;5.814;2023-04-10T06:33:28;19.88;;;10.15;;
60243;SDS011;46106;51.468;5.814;2023-04-10T06:35:54;19.27;;;10.07;;
60243;SDS011;46106;51.468;5.814;2023-04-10T06:38:20;20.15;;;9.98;;
60243;SDS011;46106;51.468;5.814;2023-04-10T06:40:45;25.52;;;10.85;;
60243;SDS011;46106;51.468;5.814;2023-04-10T06:43:11;19.67;;;10.35;;
60243;SDS011;46106;51.468;5.814;2023-04-10T06:45:36;19.70;;;9.93;;
60243;SDS011;46106;51.468;5.814;2023-04-10T06:48:02;21.63;;;10.68;;
60243;SDS011;46106;51.468;5.814;2023-04-10T06:50:28;19.63;;;10.57;;
60243;SDS011;46106;51.468;5.814;2023-04-10T06:52:53;19.88;;;10.00;;
60243;SDS011;46106;51.468;5.814;2023-04-10T06:55:20;22.13;;;10.65;;
60243;SDS011;46106;51.468;5.814;2023-04-10T06:57:46;22.90;;;9.25;;
60243;SDS011;46106;51.468;5.814;2023-04-10T07:00:12;19.77;;;10.48;;
60243;SDS011;46106;51.468;5.814;2023-04-10T07:02:37;18.17;;;10.77;;
60243;SDS011;46106;51.468;5.814;2023-04-10T07:05:03;20.45;;;9.70;;
60243;SDS011;46106;51.468;5.814;2023-04-10T07:07:29;18.38;;;10.90;;
60243;SDS011;46106;51.468;5.814;2023-04-10T07:09:55;17.98;;;9.40;;
60243;SDS011;46106;51.468;5.814;2023-04-10T07:12:22;20.10;;;10.30;;
60243;SDS011;46106;51.468;5.814;2023-04-10T07:14:47;18.60;;;10.27;;
60243;SDS011;46106;51.468;5.814;2023-04-10T07:17:13;17.20;;;8.98;;
60243;SDS011;46106;51.468;5.814;2023-04-10T07:19:38;17.38;;;9.02;;
60243;SDS011;46106;51.468;5.814;2023-04-10T07:22:04;18.45;;;9.30;;
60243;SDS011;46106;51.468;5.814;2023-04-10T07:24:30;17.50;;;9.98;;
60243;SDS011;46106;51.468;5.814;2023-04-10T07:26:56;17.77;;;9.82;;
60243;SDS011;46106;51.468;5.814;2023-04-10T07:29:22;18.00;;;9.45;;
60243;SDS011;46106;51.468;5.814;2023-04-10T07:31:48;19.80;;;10.40;;
60243;SDS011;46106;51.468;5.814;2023-04-10T07:34:14;24.33;;;9.93;;
60243;SDS011;46106;51.468;5.814;2023-04-10T07:36:39;16.95;;;9.43;;
60243;SDS011;46106;51.468;5.814;2023-04-10T07:39:05;19.63;;;9.82;;
60243;SDS011;46106;51.468;5.814;2023-04-10T07:41:30;17.17;;;9.48;;
60243;SDS011;46106;51.468;5.814;2023-04-10T07:43:56;21.48;;;10.00;;
60243;SDS011;46106;51.468;5.814;2023-04-10T07:46:21;18.50;;;9.82;;
60243;SDS011;46106;51.468;5.814;2023-04-10T07:48:47;13.45;;;7.78;;
60243;SDS011;46106;51.468;5.814;2023-04-10T07:51:13;20.80;;;9.15;;
60243;SDS011;46106;51.468;5.814;2023-04-10T07:53:39;17.88;;;9.82;;
60243;SDS011;46106;51.468;5.814;2023-04-10T07:56:05;17.23;;;9.30;;
60243;SDS011;46106;51.468;5.814;2023-04-10T07:58:31;45.22;;;11.93;;
60243;SDS011;46106;51.468;5.814;2023-04-10T08:00:57;22.42;;;9.60;;
60243;SDS011;46106;51.468;5.814;2023-04-10T08:03:22;15.77;;;8.57;;
60243;SDS011;46106;51.468;5.814;2023-04-10T08:05:48;14.90;;;8.32;;
60243;SDS011;46106;51.468;5.814;2023-04-10T08:08:14;15.95;;;8.88;;
60243;SDS011;46106;51.468;5.814;2023-04-10T08:10:40;14.48;;;8.73;;
60243;SDS011;46106;51.468;5.814;2023-04-10T08:13:06;13.02;;;7.97;;
60243;SDS011;46106;51.468;5.814;2023-04-10T08:15:35;13.23;;;8.00;;
60243;SDS011;46106;51.468;5.814;2023-04-10T08:18:00;15.15;;;8.32;;
60243;SDS011;46106;51.468;5.814;2023-04-10T08:20:26;29.38;;;8.98;;
60243;SDS011;46106;51.468;5.814;2023-04-10T08:22:52;21.67;;;8.70;;
60243;SDS011;46106;51.468;5.814;2023-04-10T08:25:19;13.65;;;8.27;;
60243;SDS011;46106;51.468;5.814;2023-04-10T08:27:44;16.25;;;8.13;;
60243;SDS011;46106;51.468;5.814;2023-04-10T08:30:10;12.50;;;8.27;;
60243;SDS011;46106;51.468;5.814;2023-04-10T08:32:36;15.00;;;8.43;;
60243;SDS011;46106;51.468;5.814;2023-04-10T08:35:02;15.63;;;7.68;;
60243;SDS011;46106;51.468;5.814;2023-04-10T08:37:28;12.77;;;7.60;;
60243;SDS011;46106;51.468;5.814;2023-04-10T08:39:54;16.30;;;8.55;;
60243;SDS011;46106;51.468;5.814;2023-04-10T08:42:19;13.95;;;7.78;;
60243;SDS011;46106;51.468;5.814;2023-04-10T08:44:47;14.27;;;7.82;;
60243;SDS011;46106;51.468;5.814;2023-04-10T08:47:13;14.45;;;7.60;;
60243;SDS011;46106;51.468;5.814;2023-04-10T08:49:48;13.27;;;8.07;;
60243;SDS011;46106;51.468;5.814;2023-04-10T08:52:28;13.30;;;8.10;;
60243;SDS011;46106;51.468;5.814;2023-04-10T08:54:58;12.43;;;7.78;;
60243;SDS011;46106;51.468;5.814;2023-04-10T08:57:26;14.07;;;7.80;;
60243;SDS011;46106;51.468;5.814;2023-04-10T08:59:53;14.13;;;7.93;;
60243;SDS011;46106;51.468;5.814;2023-04-10T09:02:20;13.98;;;8.57;;
60243;SDS011;46106;51.468;5.814;2023-04-10T09:04:49;13.73;;;8.18;;
60243;SDS011;46106;51.468;5.814;2023-04-10T09:07:19;12.95;;;7.72;;
60243;SDS011;46106;51.468;5.814;2023-04-10T09:09:44;14.95;;;7.93;;
60243;SDS011;46106;51.468;5.814;2023-04-10T09:12:13;12.07;;;7.95;;
60243;SDS011;46106;51.468;5.814;2023-04-10T09:14:40;13.38;;;7.65;;
60243;SDS011;46106;51.468;5.814;2023-04-10T09:17:27;12.50;;;7.65;;
60243;SDS011;46106;51.468;5.814;2023-04-10T09:19:53;11.77;;;6.72;;
60243;SDS011;46106;51.468;5.814;2023-04-10T09:22:33;16.83;;;8.13;;
60243;SDS011;46106;51.468;5.814;2023-04-10T09:25:01;16.20;;;7.78;;
60243;SDS011;46106;51.468;5.814;2023-04-10T09:27:31;10.95;;;7.47;;
60243;SDS011;46106;51.468;5.814;2023-04-10T09:30:02;14.63;;;7.43;;
60243;SDS011;46106;51.468;5.814;2023-04-10T09:35:03;14.52;;;7.32;;
60243;SDS011;46106;51.468;5.814;2023-04-10T09:37:33;12.45;;;7.53;;
60243;SDS011;46106;51.468;5.814;2023-04-10T09:40:03;13.20;;;7.28;;
60243;SDS011;46106;51.468;5.814;2023-04-10T09:42:30;15.18;;;8.57;;
60243;SDS011;46106;51.468;5.814;2023-04-10T09:45:01;14.10;;;7.60;;
60243;SDS011;46106;51.468;5.814;2023-04-10T09:47:28;12.82;;;7.63;;
60243;SDS011;46106;51.468;5.814;2023-04-10T09:49:56;14.48;;;7.28;;
60243;SDS011;46106;51.468;5.814;2023-04-10T09:52:28;20.55;;;8.48;;
60243;SDS011;46106;51.468;5.814;2023-04-10T09:55:03;13.20;;;7.25;;
60243;SDS011;46106;51.468;5.814;2023-04-10T09:57:31;12.02;;;7.90;;
60243;SDS011;46106;51.468;5.814;2023-04-10T09:59:59;12.95;;;7.85;;
60243;SDS011;46106;51.468;5.814;2023-04-10T10:02:32;16.85;;;8.15;;
60243;SDS011;46106;51.468;5.814;2023-04-10T10:05:01;10.73;;;7.03;;
60243;SDS011;46106;51.468;5.814;2023-04-10T10:07:28;12.38;;;7.00;;
60243;SDS011;46106;51.468;5.814;2023-04-10T10:09:54;13.70;;;7.60;;
60243;SDS011;46106;51.468;5.814;2023-04-10T10:12:21;11.60;;;7.40;;
60243;SDS011;46106;51.468;5.814;2023-04-10T10:14:59;13.80;;;7.78;;
60243;SDS011;46106;51.468;5.814;2023-04-10T10:20:43;13.73;;;7.53;;
60243;SDS011;46106;51.468;5.814;2023-04-10T10:23:10;20.38;;;8.27;;
60243;SDS011;46106;51.468;5.814;2023-04-10T10:25:35;11.23;;;6.88;;
60243;SDS011;46106;51.468;5.814;2023-04-10T10:28:03;22.58;;;7.25;;
60243;SDS011;46106;51.468;5.814;2023-04-10T10:30:33;14.70;;;7.75;;
60243;SDS011;46106;51.468;5.814;2023-04-10T10:33:00;15.60;;;8.13;;
60243;SDS011;46106;51.468;5.814;2023-04-10T10:35:30;13.63;;;6.95;;
60243;SDS011;46106;51.468;5.814;2023-04-10T10:37:59;13.43;;;8.20;;
60243;SDS011;46106;51.468;5.814;2023-04-10T10:40:37;13.60;;;8.20;;
60243;SDS011;46106;51.468;5.814;2023-04-10T10:43:15;11.05;;;7.03;;
60243;SDS011;46106;51.468;5.814;2023-04-10T10:45:51;11.20;;;6.72;;
60243;SDS011;46106;51.468;5.814;2023-04-10T10:48:22;10.30;;;6.28;;
60243;SDS011;46106;51.468;5.814;2023-04-10T10:50:54;8.50;;;6.10;;
60243;SDS011;46106;51.468;5.814;2023-04-10T10:53:46;10.43;;;6.30;;
60243;SDS011;46106;51.468;5.814;2023-04-10T10:58:52;13.98;;;6.32;;
60243;SDS011;46106;51.468;5.814;2023-04-10T11:01:21;11.05;;;5.57;;
60243;SDS011;46106;51.468;5.814;2023-04-10T11:03:48;10.00;;;5.53;;
60243;SDS011;46106;51.468;5.814;2023-04-10T11:06:15;8.68;;;5.03;;
60243;SDS011;46106;51.468;5.814;2023-04-10T11:08:52;8.93;;;5.57;;
60243;SDS011;46106;51.468;5.814;2023-04-10T11:11:18;6.70;;;4.90;;
60243;SDS011;46106;51.468;5.814;2023-04-10T11:19:15;7.82;;;4.97;;
60243;SDS011;46106;51.468;5.814;2023-04-10T11:22:01;7.97;;;5.10;;
60243;SDS011;46106;51.468;5.814;2023-04-10T11:24:28;7.38;;;4.85;;
60243;SDS011;46106;51.468;5.814;2023-04-10T11:27:36;8.88;;;4.95;;
60243;SDS011;46106;51.468;5.814;2023-04-10T11:30:27;6.50;;;4.35;;
60243;SDS011;46106;51.468;5.814;2023-04-10T11:32:53;6.00;;;4.22;;
60243;SDS011;46106;51.468;5.814;2023-04-10T11:35:19;6.72;;;4.93;;
60243;SDS011;46106;51.468;5.814;2023-04-10T11:37:45;11.52;;;4.88;;
60243;SDS011;46106;51.468;5.814;2023-04-10T11:40:11;6.60;;;4.68;;
60243;SDS011;46106;51.468;5.814;2023-04-10T11:42:37;6.72;;;4.88;;
60243;SDS011;46106;51.468;5.814;2023-04-10T11:45:24;11.82;;;4.78;;
60243;SDS011;46106;51.468;5.814;2023-04-10T11:47:52;5.95;;;4.07;;
60243;SDS011;46106;51.468;5.814;2023-04-10T11:50:19;7.07;;;4.35;;
60243;SDS011;46106;51.468;5.814;2023-04-10T11:52:50;4.35;;;3.80;;
60243;SDS011;46106;51.468;5.814;2023-04-10T11:55:16;5.82;;;4.72;;
60243;SDS011;46106;51.468;5.814;2023-04-10T11:57:44;7.55;;;4.75;;
60243;SDS011;46106;51.468;5.814;2023-04-10T12:00:09;6.47;;;4.28;;
60243;SDS011;46106;51.468;5.814;2023-04-10T12:02:48;5.53;;;4.35;;
60243;SDS011;46106;51.468;5.814;2023-04-10T12:05:15;8.75;;;4.47;;
60243;SDS011;46106;51.468;5.814;2023-04-10T12:07:41;8.07;;;4.35;;
60243;SDS011;46106;51.468;5.814;2023-04-10T12:10:07;8.05;;;3.50;;
60243;SDS011;46106;51.468;5.814;2023-04-10T12:12:33;4.55;;;3.75;;
60243;SDS011;46106;51.468;5.814;2023-04-10T12:15:06;5.53;;;3.90;;
60243;SDS011;46106;51.468;5.814;2023-04-10T12:17:51;7.50;;;4.40;;
60243;SDS011;46106;51.468;5.814;2023-04-10T12:20:17;8.70;;;4.88;;
60243;SDS011;46106;51.468;5.814;2023-04-10T12:22:43;6.45;;;4.50;;
60243;SDS011;46106;51.468;5.814;2023-04-10T12:25:10;5.15;;;3.80;;
60243;SDS011;46106;51.468;5.814;2023-04-10T12:27:46;6.60;;;3.80;;
60243;SDS011;46106;51.468;5.814;2023-04-10T12:30:14;8.95;;;4.20;;
60243;SDS011;46106;51.468;5.814;2023-04-10T12:32:40;6.03;;;4.40;;
60243;SDS011;46106;51.468;5.814;2023-04-10T12:35:16;7.25;;;4.57;;
60243;SDS011;46106;51.468;5.814;2023-04-10T12:37:51;6.38;;;4.03;;
60243;SDS011;46106;51.468;5.814;2023-04-10T12:40:18;6.00;;;4.00;;
60243;SDS011;46106;51.468;5.814;2023-04-10T12:42:46;5.55;;;3.90;;
60243;SDS011;46106;51.468;5.814;2023-04-10T12:45:12;4.43;;;3.85;;
60243;SDS011;46106;51.468;5.814;2023-04-10T12:47:42;7.40;;;4.32;;
60243;SDS011;46106;51.468;5.814;2023-04-10T12:50:18;7.88;;;4.32;;
60243;SDS011;46106;51.468;5.814;2023-04-10T12:52:45;9.35;;;4.47;;
60243;SDS011;46106;51.468;5.814;2023-04-10T12:55:25;5.72;;;4.30;;
60243;SDS011;46106;51.468;5.814;2023-04-10T12:57:53;6.47;;;3.92;;
60243;SDS011;46106;51.468;5.814;2023-04-10T13:00:20;6.85;;;4.07;;
60243;SDS011;46106;51.468;5.814;2023-04-10T13:02:46;6.30;;;3.95;;
60243;SDS011;46106;51.468;5.814;2023-04-10T13:05:13;5.05;;;3.60;;
60243;SDS011;46106;51.468;5.814;2023-04-10T13:07:38;7.55;;;3.70;;
60243;SDS011;46106;51.468;5.814;2023-04-10T13:10:05;7.03;;;3.92;;
60243;SDS011;46106;51.468;5.814;2023-04-10T13:12:31;6.20;;;3.63;;
60243;SDS011;46106;51.468;5.814;2023-04-10T13:14:59;7.55;;;3.47;;
60243;SDS011;46106;51.468;5.814;2023-04-10T13:17:25;7.47;;;3.70;;
60243;SDS011;46106;51.468;5.814;2023-04-10T13:19:51;7.60;;;4.03;;
60243;SDS011;46106;51.468;5.814;2023-04-10T13:22:17;5.53;;;3.50;;
60243;SDS011;46106;51.468;5.814;2023-04-10T13:24:43;8.10;;;3.30;;
60243;SDS011;46106;51.468;5.814;2023-04-10T13:27:08;4.63;;;3.55;;
60243;SDS011;46106;51.468;5.814;2023-04-10T13:29:35;6.43;;;3.55;;
60243;SDS011;46106;51.468;5.814;2023-04-10T13:32:01;6.80;;;3.80;;
60243;SDS011;46106;51.468;5.814;2023-04-10T13:34:29;5.88;;;3.70;;
60243;SDS011;46106;51.468;5.814;2023-04-10T13:36:58;5.82;;;3.67;;
60243;SDS011;46106;51.468;5.814;2023-04-10T13:39:25;7.80;;;3.70;;
60243;SDS011;46106;51.468;5.814;2023-04-10T13:41:51;4.85;;;3.63;;
60243;SDS011;46106;51.468;5.814;2023-04-10T13:44:16;5.40;;;3.80;;
60243;SDS011;46106;51.468;5.814;2023-04-10T13:46:42;6.88;;;3.85;;
60243;SDS011;46106;51.468;5.814;2023-04-10T13:49:07;4.35;;;3.15;;
60243;SDS011;46106;51.468;5.814;2023-04-10T13:51:33;6.18;;;3.47;;
60243;SDS011;46106;51.468;5.814;2023-04-10T13:53:58;13.52;;;4.05;;
60243;SDS011;46106;51.468;5.814;2023-04-10T13:56:24;7.93;;;4.13;;
60243;SDS011;46106;51.468;5.814;2023-04-10T13:58:49;6.50;;;4.32;;
60243;SDS011;46106;51.468;5.814;2023-04-10T14:01:14;12.10;;;6.68;;
60243;SDS011;46106;51.468;5.814;2023-04-10T14:03:40;7.22;;;5.03;;
60243;SDS011;46106;51.468;5.814;2023-04-10T14:06:06;11.93;;;5.47;;
60243;SDS011;46106;51.468;5.814;2023-04-10T14:08:31;6.97;;;4.72;;
60243;SDS011;46106;51.468;5.814;2023-04-10T14:10:57;6.75;;;4.22;;
60243;SDS011;46106;51.468;5.814;2023-04-10T14:13:22;7.43;;;4.00;;
60243;SDS011;46106;51.468;5.814;2023-04-10T14:15:48;9.45;;;4.05;;
60243;SDS011;46106;51.468;5.814;2023-04-10T14:18:16;5.65;;;3.80;;
60243;SDS011;46106;51.468;5.814;2023-04-10T14:20:42;6.63;;;4.00;;
60243;SDS011;46106;51.468;5.814;2023-04-10T14:23:08;5.32;;;3.50;;
60243;SDS011;46106;51.468;5.814;2023-04-10T14:25:33;9.75;;;4.75;;
60243;SDS011;46106;51.468;5.814;2023-04-10T14:27:59;5.90;;;3.08;;
60243;SDS011;46106;51.468;5.814;2023-04-10T14:30:24;4.05;;;3.17;;
60243;SDS011;46106;51.468;5.814;2023-04-10T14:32:54;4.43;;;2.85;;
60243;SDS011;46106;51.468;5.814;2023-04-10T14:35:20;3.33;;;2.78;;
60243;SDS011;46106;51.468;5.814;2023-04-10T14:37:47;5.20;;;2.90;;
60243;SDS011;46106;51.468;5.814;2023-04-10T14:40:13;4.10;;;3.30;;
60243;SDS011;46106;51.468;5.814;2023-04-10T14:42:38;7.20;;;3.38;;
60243;SDS011;46106;51.468;5.814;2023-04-10T14:45:04;5.68;;;3.25;;
60243;SDS011;46106;51.468;5.814;2023-04-10T14:47:30;12.63;;;3.92;;
60243;SDS011;46106;51.468;5.814;2023-04-10T14:49:56;3.58;;;2.47;;
60243;SDS011;46106;51.468;5.814;2023-04-10T14:52:22;7.00;;;2.90;;
60243;SDS011;46106;51.468;5.814;2023-04-10T14:54:47;5.60;;;2.90;;
60243;SDS011;46106;51.468;5.814;2023-04-10T14:57:13;6.35;;;3.00;;
60243;SDS011;46106;51.468;5.814;2023-04-10T14:59:39;9.02;;;3.17;;